Terminal Aerodrome Forecast
Issued by NWS

Current Version | Previous Version | Text Only | Print | Product List | Glossary Off
Versions: 1 2 3 4 5 6 7 8 9 10 11 12 13 14 15 16 17 18 19 20 21

000
FTUS41 KILN 292300 RRA
TAFLCK
TAF
KLCK 292343Z 3000/3024 17010KT P6SM OVC090
     FM300100 19009KT P6SM -SHRA BKN040 OVC080
     FM300300 21011KT P6SM BKN040 OVC080
     FM300600 24012KT P6SM VCSH SCT025 BKN040
     FM300800 26012G20KT P6SM BKN022
     FM301100 28012KT P6SM SCT025
     FM301700 28014G22KT P6SM SCT040=

USA.gov is the U.S. government's official web portal to all federal, state and local government web resources and services.